VIE weather

Vienna International Airport
Vienna, Vienna, Austria

Public forecast

Using degrees Celsius for public forecast. Weather courtesy of forecast.io.

Current aviation weather report (METAR) for Vienna International Airport

Retrieved 2020/08/05 19:20 UTC (1 second ago):

LOWW 051920Z 30012KT 9999 FEW032 SCT042 18/14 Q1018 NOSIG

Aviation forecast (TAF) for Vienna International Airport

Retrieved 2020/08/05 18:20 UTC (1 hour ago):

TAF LOWW 051715Z 0518/0624 33010KT CAVOK TX26/0614Z TN16/0603Z